Time;durP1;ratioP1;P1;durP2;ratioP2;P2;SDS_P1;SDS_P2;PMS_P1;PMS_P2;Temp;Humidity;BMP_temperature;BMP_pressure;BME280_temperature;BME280_humidity;BME280_pressure;Samples;Min_cycle;Max_cycle;Signal;HPM_P1;HPM_P2
2022/07/14 00:00:51;;;;;;;6.57;1.80;;;;;;;25.26;43.16;99061.38;5113438;28;20031;-48
2022/07/14 00:03:17;;;;;;;14.35;3.38;;;;;;;25.38;43.05;99052.09;5113537;28;20424;-48
2022/07/14 00:05:43;;;;;;;9.82;2.95;;;;;;;25.69;42.81;99064.00;5113398;28;20026;-48
2022/07/14 00:08:09;;;;;;;8.77;2.42;;;;;;;26.10;41.95;99055.38;5113451;28;20034;-48
2022/07/14 00:10:35;;;;;;;15.10;3.20;;;;;;;26.22;41.54;99060.28;5113319;28;20059;-48
2022/07/14 00:13:00;;;;;;;12.07;2.83;;;;;;;26.33;41.58;99055.53;5095041;28;20394;-48
2022/07/14 00:15:26;;;;;;;6.57;1.83;;;;;;;26.49;41.16;99053.38;5113274;28;20015;-48
2022/07/14 00:17:52;;;;;;;9.05;2.40;;;;;;;26.67;40.78;99059.81;5094923;28;20019;-48
2022/07/14 00:20:18;;;;;;;3.85;1.60;;;;;;;26.61;40.40;99050.22;5113205;28;20023;-48
2022/07/14 00:22:44;;;;;;;4.55;1.83;;;;;;;26.61;40.55;99050.22;5112843;28;20058;-48
2022/07/14 00:25:11;;;;;;;11.40;2.78;;;;;;;26.88;40.53;99054.81;5113098;28;20027;-48
2022/07/14 00:27:36;;;;;;;10.43;2.20;;;;;;;26.96;40.20;99051.44;5094679;28;20035;-48
2022/07/14 00:30:04;;;;;;;4.97;1.85;;;;;;;27.10;39.58;99046.03;5094685;28;20023;-48
2022/07/14 00:32:30;;;;;;;7.38;2.33;;;;;;;27.18;39.30;99048.03;5112886;28;20028;-48
2022/07/14 00:34:58;;;;;;;9.70;2.30;;;;;;;27.25;39.62;99045.75;5094619;28;20027;-49
2022/07/14 00:37:24;;;;;;;6.68;2.25;;;;;;;27.34;39.31;99045.84;5112804;28;20442;-48
2022/07/14 00:39:56;;;;;;;14.02;2.75;;;;;;;27.38;39.05;99046.81;5094542;28;20115;-49
2022/07/14 00:42:33;;;;;;;11.75;2.63;;;;;;;27.71;38.76;99052.06;5112729;28;20417;-49
2022/07/14 00:45:05;;;;;;;5.68;1.77;;;;;;;28.09;37.49;99047.13;5112781;28;20027;-46
2022/07/14 00:47:32;;;;;;;4.35;1.70;;;;;;;27.92;37.46;99049.69;5112650;28;20126;-47
2022/07/14 00:49:58;;;;;;;4.85;2.13;;;;;;;27.51;38.64;99050.59;5112623;28;20026;-46
2022/07/14 00:52:26;;;;;;;11.52;3.28;;;;;;;27.09;40.01;99064.09;5112184;28;20393;-46
2022/07/14 00:54:53;;;;;;;13.02;3.00;;;;;;;27.03;39.69;99059.13;5112623;28;20015;-46
2022/07/14 00:57:18;;;;;;;8.82;2.55;;;;;;;26.65;40.28;99064.69;5112498;28;20464;-46
2022/07/14 00:59:45;;;;;;;6.93;2.75;;;;;;;26.18;40.91;99055.78;5094319;28;20034;-46
2022/07/14 01:02:11;;;;;;;8.27;3.40;;;;;;;25.75;42.02;99055.88;5112398;28;20415;-46
2022/07/14 01:04:37;;;;;;;7.13;2.83;;;;;;;25.41;42.46;99056.88;5112388;28;20065;-46
2022/07/14 01:07:03;;;;;;;13.63;4.20;;;;;;;25.24;43.50;99065.44;5112415;28;20406;-46
2022/07/14 01:09:28;;;;;;;10.95;3.05;;;;;;;25.25;43.41;99073.22;5112370;28;20016;-46
2022/07/14 01:11:54;;;;;;;11.10;2.75;;;;;;;25.28;43.37;99056.50;5112288;28;20408;-46
2022/07/14 01:14:20;;;;;;;12.52;3.75;;;;;;;25.36;43.40;99063.13;5093936;28;20027;-45
2022/07/14 01:16:46;;;;;;;10.35;3.45;;;;;;;25.52;43.28;99059.16;5112192;28;20027;-46
2022/07/14 01:19:12;;;;;;;8.13;2.63;;;;;;;25.57;42.62;99062.84;5112107;28;20028;-48
2022/07/14 01:21:38;;;;;;;19.15;3.55;;;;;;;25.29;43.31;99063.50;5111916;28;20066;-49
2022/07/14 01:24:04;;;;;;;14.70;3.15;;;;;;;25.26;43.32;99065.94;5112243;28;20020;-48
2022/07/14 01:26:29;;;;;;;9.68;2.97;;;;;;;25.03;43.76;99072.91;5093960;28;20027;-48
2022/07/14 01:28:55;;;;;;;7.60;2.92;;;;;;;24.84;44.43;99067.47;5112242;28;20020;-48
2022/07/14 01:31:21;;;;;;;8.63;2.95;;;;;;;24.94;44.09;99062.00;5112157;28;20477;-48
2022/07/14 01:33:46;;;;;;;9.63;3.58;;;;;;;24.82;44.61;99078.50;5112137;28;20362;-48
2022/07/14 01:36:12;;;;;;;8.60;2.97;;;;;;;24.68;44.79;99062.25;5112082;28;20032;-48
2022/07/14 01:38:38;;;;;;;11.23;3.28;;;;;;;24.46;45.36;99084.16;5093828;28;20544;-48
2022/07/14 01:41:03;;;;;;;11.32;3.97;;;;;;;24.24;46.13;99067.75;5111971;28;20030;-48
2022/07/14 01:43:29;;;;;;;13.98;3.47;;;;;;;24.36;46.87;99078.09;5112072;28;20024;-48
2022/07/14 01:45:55;;;;;;;10.88;3.72;;;;;;;24.09;46.64;99060.63;5111993;28;20024;-48
2022/07/14 01:48:20;;;;;;;11.35;3.97;;;;;;;24.03;48.51;99073.25;5111971;28;20019;-48
2022/07/14 01:50:47;;;;;;;11.93;4.13;;;;;;;24.10;47.08;99063.00;5111982;28;20398;-48
2022/07/14 01:53:14;;;;;;;7.50;3.22;;;;;;;24.02;47.16;99063.59;5111985;28;20097;-48
2022/07/14 01:55:39;;;;;;;8.73;3.13;;;;;;;24.18;46.96;99071.53;5093634;28;20035;-48
2022/07/14 01:58:05;;;;;;;10.45;3.50;;;;;;;24.31;46.47;99057.50;5111934;28;20396;-49
2022/07/14 02:00:30;;;;;;;14.10;3.90;;;;;;;24.24;46.50;99063.16;5112216;28;20055;-48
2022/07/14 02:02:56;;;;;;;11.65;3.28;;;;;;;24.27;46.49;99057.25;5093367;28;20054;-48
2022/07/14 02:05:22;;;;;;;10.35;3.75;;;;;;;24.39;46.89;99051.53;5115409;28;20026;-48
2022/07/14 02:07:47;;;;;;;12.30;3.50;;;;;;;24.67;48.35;99049.94;5097492;28;20028;-48
2022/07/14 02:12:57;;;;;;;3.83;2.97;;;;;;;24.19;49.91;99044.44;5116061;28;20050;-48
2022/07/14 02:15:23;;;;;;;7.32;3.10;;;;;;;23.83;51.36;99049.28;5097309;28;20481;-48
2022/07/14 02:17:49;;;;;;;21.00;6.25;;;;;;;23.57;51.09;99049.41;5115654;28;20024;-48
2022/07/14 02:20:15;;;;;;;12.45;3.88;;;;;;;23.77;50.64;99040.47;5097211;28;20035;-48
2022/07/14 02:22:40;;;;;;;10.95;3.00;;;;;;;24.03;49.06;99051.81;5096893;28;20043;-48
2022/07/14 02:25:07;;;;;;;7.63;3.17;;;;;;;24.24;48.08;99049.75;5115477;28;20050;-49
2022/07/14 02:27:33;;;;;;;8.73;3.53;;;;;;;24.58;47.40;99042.78;5115484;28;20027;-48
2022/07/14 02:29:59;;;;;;;17.02;4.00;;;;;;;24.59;47.03;99047.88;5115458;28;20103;-48
2022/07/14 02:32:25;;;;;;;13.00;4.07;;;;;;;24.91;47.00;99044.56;5097037;28;20138;-48
2022/07/14 02:34:50;;;;;;;15.50;4.00;;;;;;;25.24;45.71;99043.94;5096998;28;20489;-48
2022/07/14 02:37:16;;;;;;;16.85;3.88;;;;;;;25.41;45.71;99043.44;5096855;28;20117;-48
2022/07/14 02:39:42;;;;;;;21.55;4.45;;;;;;;25.25;45.50;99043.66;5115219;28;20482;-49
2022/07/14 02:42:07;;;;;;;18.63;4.43;;;;;;;25.11;45.30;99048.91;5096900;28;20092;-48
2022/07/14 02:44:33;;;;;;;11.95;3.65;;;;;;;24.80;46.20;99047.66;5096734;28;20497;-48
2022/07/14 02:46:58;;;;;;;14.80;3.80;;;;;;;24.83;46.19;99047.91;5096737;28;20081;-48
2022/07/14 02:49:24;;;;;;;7.18;3.30;;;;;;;24.78;45.66;99037.19;5096630;28;20065;-48
2022/07/14 02:51:50;;;;;;;8.68;3.38;;;;;;;24.51;45.88;99041.25;5096573;28;20031;-48
2022/07/14 02:54:17;;;;;;;13.85;3.40;;;;;;;24.20;46.75;99042.56;5114908;28;20500;-49
2022/07/14 02:56:43;;;;;;;8.50;3.63;;;;;;;24.17;47.03;99051.19;5114805;28;20077;-48
2022/07/14 02:59:08;;;;;;;13.45;3.70;;;;;;;24.35;46.98;99057.72;5114854;28;20409;-48
2022/07/14 03:01:34;;;;;;;10.13;3.33;;;;;;;24.26;46.75;99054.84;5096360;28;20024;-48
2022/07/14 03:04:00;;;;;;;7.85;3.10;;;;;;;23.96;47.29;99050.53;5096354;28;20397;-48
2022/07/14 03:06:25;;;;;;;14.80;3.90;;;;;;;23.80;47.79;99056.00;5096242;28;20032;-48
2022/07/14 03:08:51;;;;;;;8.30;3.28;;;;;;;23.61;47.91;99058.50;5096341;28;20020;-48
2022/07/14 03:11:16;;;;;;;13.20;3.83;;;;;;;23.27;48.85;99069.13;5114485;28;20110;-49
2022/07/14 03:13:42;;;;;;;6.32;3.95;;;;;;;22.97;49.56;99072.69;5096304;28;20020;-48
2022/07/14 03:16:09;;;;;;;10.52;3.25;;;;;;;23.19;50.07;99062.44;5095760;28;20031;-48
2022/07/14 03:18:39;;;;;;;7.47;3.25;;;;;;;23.61;49.20;99065.75;5114322;28;20020;-48
2022/07/14 03:21:09;;;;;;;7.18;3.30;;;;;;;23.73;48.78;99061.63;5114322;28;20059;-48
2022/07/14 03:23:35;;;;;;;5.90;3.00;;;;;;;23.52;48.60;99069.00;5095855;28;20116;-48
2022/07/14 03:26:01;;;;;;;5.20;2.67;;;;;;;23.15;49.05;99058.72;5114315;28;20481;-48
2022/07/14 03:28:28;;;;;;;6.57;2.70;;;;;;;22.80;49.76;99055.06;5114252;28;20020;-48
2022/07/14 03:30:56;;;;;;;4.88;2.97;;;;;;;22.57;50.97;99055.63;5114401;28;20149;-48
2022/07/14 03:33:24;;;;;;;5.68;3.00;;;;;;;22.37;51.64;99059.13;5114038;28;20028;-48
2022/07/14 03:35:50;;;;;;;5.18;2.97;;;;;;;22.35;52.01;99054.03;5092435;28;20109;-48
2022/07/14 03:38:16;;;;;;;10.48;2.53;;;;;;;22.40;52.13;99048.72;5093073;28;20062;-47
2022/07/14 03:40:45;;;;;;;10.98;3.08;;;;;;;22.41;52.39;99044.94;5092311;28;20108;-48
2022/07/14 03:43:11;;;;;;;5.88;2.88;;;;;;;22.52;52.34;99045.75;5110472;28;20051;-48
2022/07/14 03:45:38;;;;;;;8.77;2.80;;;;;;;22.59;51.69;99048.13;5113925;28;20055;-48
2022/07/14 03:48:07;;;;;;;6.32;2.67;;;;;;;22.47;52.01;99048.41;5092449;28;20440;-48
2022/07/14 03:50:34;;;;;;;5.63;2.78;;;;;;;22.35;52.30;99046.03;5095215;28;20414;-48
2022/07/14 03:53:00;;;;;;;7.45;2.70;;;;;;;22.14;53.12;99045.22;5113811;28;20400;-48
2022/07/14 03:55:25;;;;;;;11.35;3.05;;;;;;;22.02;53.58;99047.34;5094104;28;20020;-47
2022/07/14 03:57:51;;;;;;;9.82;2.95;;;;;;;21.93;53.25;99049.72;5113699;28;20030;-46
2022/07/14 04:00:17;;;;;;;5.70;2.38;;;;;;;22.02;52.97;99044.69;5092756;28;20020;-46
2022/07/14 04:02:42;;;;;;;7.57;2.75;;;;;;;22.05;52.76;99052.16;5091788;28;20031;-46
2022/07/14 04:05:08;;;;;;;5.70;2.58;;;;;;;22.04;52.83;99056.69;5109631;28;20024;-46
2022/07/14 04:07:37;;;;;;;5.78;2.10;;;;;;;21.95;53.02;99055.59;5095112;28;20034;-46
2022/07/14 04:10:03;;;;;;;3.83;2.65;;;;;;;22.01;53.09;99051.06;5113450;28;20015;-46
2022/07/14 04:12:28;;;;;;;8.07;3.28;;;;;;;22.09;52.79;99059.38;5094250;28;20033;-46
2022/07/14 04:14:54;;;;;;;9.25;3.22;;;;;;;22.29;52.85;99052.44;5113338;28;20481;-46
2022/07/14 04:17:20;;;;;;;7.85;3.60;;;;;;;22.41;52.32;99050.28;5113267;28;20026;-46
2022/07/14 04:19:45;;;;;;;11.25;3.10;;;;;;;22.46;52.28;99057.53;5113182;28;20054;-46
2022/07/14 04:22:11;;;;;;;4.40;3.00;;;;;;;22.47;51.93;99062.59;5091248;28;20051;-46
2022/07/14 04:24:37;;;;;;;8.02;2.80;;;;;;;22.46;51.86;99066.34;5113190;28;20079;-46
2022/07/14 04:27:03;;;;;;;8.00;3.42;;;;;;;22.52;51.95;99067.16;5112366;28;20012;-46
2022/07/14 04:29:29;;;;;;;15.27;4.60;;;;;;;22.68;52.64;99068.72;5113070;28;20508;-46
2022/07/14 04:31:54;;;;;;;6.80;3.10;;;;;;;23.00;51.06;99066.75;5112998;28;20027;-48
2022/07/14 04:34:20;;;;;;;7.88;3.20;;;;;;;22.91;51.20;99064.66;5112928;28;20038;-48
2022/07/14 04:36:46;;;;;;;10.38;2.90;;;;;;;22.82;51.05;99065.47;5112919;28;20015;-49
2022/07/14 04:39:11;;;;;;;6.85;3.15;;;;;;;23.20;50.88;99072.09;5091312;28;20035;-48
2022/07/14 04:41:37;;;;;;;17.80;3.90;;;;;;;23.72;50.02;99078.81;5091062;28;20461;-48
2022/07/14 04:44:03;;;;;;;7.60;3.40;;;;;;;24.30;48.47;99069.28;5108261;28;20459;-48
2022/07/14 04:46:28;;;;;;;16.33;3.58;;;;;;;24.48;48.09;99082.00;5093619;28;20069;-48
2022/07/14 04:54:22;;;;;;;27.80;4.30;;;;;;;26.48;44.54;99073.28;5112708;28;20026;-48
2022/07/14 04:56:48;;;;;;;18.63;3.92;;;;;;;27.10;42.61;99068.41;5112568;28;20027;-49
2022/07/14 04:59:13;;;;;;;10.30;3.38;;;;;;;27.44;42.24;99077.97;5091257;28;20024;-48
2022/07/14 05:01:39;;;;;;;10.82;3.58;;;;;;;28.16;40.94;99072.88;5090734;28;20039;-48
2022/07/14 05:04:05;;;;;;;10.23;3.40;;;;;;;28.87;39.18;99073.75;5090830;28;20154;-46
2022/07/14 05:06:30;;;;;;;8.68;2.72;;;;;;;29.33;38.16;99068.19;5111656;28;20405;-48
2022/07/14 05:08:56;;;;;;;8.35;2.33;;;;;;;29.35;37.19;99066.75;5112456;28;20016;-48
2022/07/14 05:11:22;;;;;;;4.82;1.98;;;;;;;29.30;37.15;99072.31;5112349;28;20111;-47
2022/07/14 05:13:53;;;;;;;4.57;2.60;;;;;;;28.81;37.21;99071.50;5112359;28;20374;-48
2022/07/14 05:16:19;;;;;;;6.68;2.40;;;;;;;27.68;39.23;99082.31;5112294;28;20058;-48
2022/07/14 05:18:45;;;;;;;5.18;2.70;;;;;;;26.57;41.13;99079.59;5112328;28;20034;-48
2022/07/14 05:21:10;;;;;;;3.28;2.40;;;;;;;25.84;42.97;99081.03;5090541;28;20023;-48
2022/07/14 05:23:36;;;;;;;5.82;2.22;;;;;;;25.97;43.18;99076.84;5112023;28;20048;-48
2022/07/14 05:26:02;;;;;;;5.22;2.58;;;;;;;27.12;41.17;99078.06;5093854;28;20401;-48
2022/07/14 05:28:28;;;;;;;3.85;2.78;;;;;;;27.36;40.03;99078.69;5112204;28;20027;-48
2022/07/14 05:31:00;;;;;;;5.00;2.72;;;;;;;26.39;41.94;99075.09;5112352;28;20069;-48
2022/07/14 05:33:25;;;;;;;6.22;2.50;;;;;;;26.77;41.80;99074.97;5112170;28;20485;-48
2022/07/14 05:35:51;;;;;;;5.32;2.22;;;;;;;28.01;39.49;99076.72;5093760;28;20023;-48
2022/07/14 05:38:17;;;;;;;6.13;2.45;;;;;;;28.56;37.85;99068.38;5095717;28;20085;-48
2022/07/14 05:40:42;;;;;;;7.32;2.90;;;;;;;27.92;38.94;99073.97;5116365;28;20118;-48
2022/07/14 05:43:08;;;;;;;4.82;2.33;;;;;;;27.91;39.12;99080.50;5116159;28;20038;-48
2022/07/14 05:45:34;;;;;;;5.97;2.80;;;;;;;28.83;37.82;99067.38;5097898;28;20031;-48
2022/07/14 05:47:59;;;;;;;3.95;2.28;;;;;;;29.87;35.94;99063.31;5116207;28;20031;-48
2022/07/14 05:50:25;;;;;;;7.30;2.85;;;;;;;30.71;34.76;99058.38;5098087;28;20058;-47
2022/07/14 05:52:51;;;;;;;6.50;2.63;;;;;;;31.60;33.12;99058.38;5116143;28;20099;-48
2022/07/14 05:55:17;;;;;;;5.68;2.67;;;;;;;32.29;31.83;99061.59;5115990;28;20020;-48
2022/07/14 05:57:42;;;;;;;4.85;2.25;;;;;;;32.76;30.99;99055.81;5097954;28;20454;-48
2022/07/14 06:00:08;;;;;;;5.35;2.13;;;;;;;33.38;30.42;99062.03;5097604;28;20024;-48
2022/07/14 06:02:34;;;;;;;4.97;2.38;;;;;;;33.72;29.83;99059.13;5097532;28;20107;-49
2022/07/14 06:05:00;;;;;;;10.27;3.10;;;;;;;32.98;30.94;99057.28;5115804;28;20051;-49
2022/07/14 06:07:25;;;;;;;4.47;2.17;;;;;;;32.96;30.39;99056.03;5115795;28;20397;-49
2022/07/14 06:09:51;;;;;;;5.25;2.60;;;;;;;32.84;30.34;99059.56;5097363;28;20019;-48
2022/07/14 06:12:17;;;;;;;5.32;2.00;;;;;;;31.73;31.72;99063.88;5115739;28;20114;-49
2022/07/14 06:14:43;;;;;;;7.15;2.35;;;;;;;31.12;32.90;99073.19;5115712;28;20012;-48
2022/07/14 06:17:10;;;;;;;10.88;2.97;;;;;;;31.00;33.79;99071.19;5115596;28;20019;-49
2022/07/14 06:19:36;;;;;;;6.38;2.25;;;;;;;31.27;33.55;99077.25;5097302;28;20046;-47
2022/07/14 06:22:06;;;;;;;7.45;2.40;;;;;;;32.54;31.77;99061.63;5115359;28;20039;-47
2022/07/14 06:24:33;;;;;;;7.85;2.75;;;;;;;33.71;30.25;99060.28;5115590;28;20032;-47
2022/07/14 06:26:59;;;;;;;10.68;3.00;;;;;;;35.35;28.32;99066.34;5115497;28;20024;-47
2022/07/14 06:29:24;;;;;;;7.70;2.47;;;;;;;36.80;26.95;99065.19;5097087;28;20451;-47
2022/07/14 06:31:55;;;;;;;14.90;2.92;;;;;;;38.12;25.21;99059.94;5115350;28;20043;-48
2022/07/14 06:34:24;;;;;;;11.57;3.00;;;;;;;39.06;24.27;99059.56;5115332;28;20080;-48
2022/07/14 06:36:50;;;;;;;4.68;2.28;;;;;;;39.81;23.00;99059.09;5115270;28;20026;-50
2022/07/14 06:39:16;;;;;;;8.35;2.17;;;;;;;40.57;21.94;99059.25;5096923;28;20565;-50
2022/07/14 06:41:42;;;;;;;10.38;2.90;;;;;;;40.60;22.02;99052.97;5115096;28;20015;-47
2022/07/14 06:44:08;;;;;;;13.25;2.70;;;;;;;40.23;22.16;99048.63;5115148;28;20055;-47
2022/07/14 06:46:34;;;;;;;5.68;2.17;;;;;;;40.49;21.84;99055.72;5115103;28;20019;-48
2022/07/14 06:49:00;;;;;;;9.68;2.40;;;;;;;39.92;21.86;99053.66;5114771;28;20129;-48
2022/07/14 06:51:26;;;;;;;8.35;2.60;;;;;;;38.55;23.84;99050.13;5096601;28;20024;-47
2022/07/14 06:53:52;;;;;;;6.18;2.45;;;;;;;38.08;23.80;99053.63;5096686;28;20378;-48
2022/07/14 06:56:19;;;;;;;9.35;2.50;;;;;;;39.07;23.37;99057.59;5114877;28;20031;-47
2022/07/14 06:58:45;;;;;;;16.30;3.13;;;;;;;39.86;22.95;99055.19;5114886;28;20031;-47
2022/07/14 07:01:11;;;;;;;6.47;2.58;;;;;;;40.24;21.92;99050.19;5096380;28;20027;-47
2022/07/14 07:03:37;;;;;;;12.20;3.20;;;;;;;39.88;22.40;99053.66;5096453;28;20392;-48
2022/07/14 07:08:47;;;;;;;9.93;2.92;;;;;;;41.41;21.07;99048.47;5115026;28;20080;-49
2022/07/14 07:11:13;;;;;;;12.02;3.60;;;;;;;41.72;20.60;99043.28;5114587;28;20099;-50
2022/07/14 07:13:38;;;;;;;10.43;2.08;;;;;;;42.34;20.39;99051.91;5114557;28;20023;-50
2022/07/14 07:16:05;;;;;;;10.57;3.28;;;;;;;43.12;19.25;99042.16;5114764;28;20507;-49
2022/07/14 07:18:32;;;;;;;10.25;3.38;;;;;;;43.72;18.85;99041.84;5096246;28;20118;-50
2022/07/14 07:20:58;;;;;;;8.10;2.85;;;;;;;44.06;19.03;99034.22;5096298;28;20107;-49
2022/07/14 07:23:25;;;;;;;15.73;3.08;;;;;;;44.28;18.00;99034.69;5095888;28;20631;-48
2022/07/14 07:25:52;;;;;;;12.45;2.03;;;;;;;44.22;18.19;99033.59;5114404;28;20482;-50
2022/07/14 07:28:18;;;;;;;5.43;2.33;;;;;;;43.98;18.16;99027.22;5096010;28;20049;-49
2022/07/14 07:30:44;;;;;;;6.88;1.65;;;;;;;44.07;17.65;99019.22;5114284;28;20098;-50
2022/07/14 07:33:09;;;;;;;11.77;3.30;;;;;;;43.91;18.08;99015.50;5095905;28;20404;-50
2022/07/14 07:35:35;;;;;;;3.95;1.83;;;;;;;43.55;18.68;99016.78;5095809;28;20020;-50
2022/07/14 07:38:01;;;;;;;13.93;2.97;;;;;;;43.27;18.98;99013.19;5114099;28;20031;-49
2022/07/14 07:40:27;;;;;;;9.70;2.15;;;;;;;42.77;19.97;99013.72;5114107;28;20386;-50
2022/07/14 07:42:53;;;;;;;9.77;2.85;;;;;;;42.76;19.82;99009.38;5095642;28;20103;-49
2022/07/14 07:45:19;;;;;;;2.00;1.50;;;;;;;42.60;20.58;99014.66;5113981;28;20020;-49
2022/07/14 07:47:44;;;;;;;16.42;2.92;;;;;;;42.17;20.71;99009.50;5113953;28;20015;-49
2022/07/14 07:50:10;;;;;;;6.18;2.05;;;;;;;42.19;20.88;99002.38;5113891;28;20030;-49
2022/07/14 07:52:37;;;;;;;7.30;2.45;;;;;;;42.57;20.43;98994.19;5095566;28;20055;-49
2022/07/14 07:55:09;;;;;;;5.78;2.13;;;;;;;43.07;20.46;98996.44;5114016;28;20401;-49
2022/07/14 07:57:36;;;;;;;7.00;1.92;;;;;;;43.44;19.82;98994.81;5113789;28;20481;-50
2022/07/14 08:00:03;;;;;;;11.40;2.35;;;;;;;43.73;19.01;98994.44;5113699;28;20045;-49
2022/07/14 08:02:29;;;;;;;5.72;1.70;;;;;;;43.95;19.19;98994.91;5112478;28;20505;-49
2022/07/14 08:04:55;;;;;;;7.13;2.22;;;;;;;44.46;18.73;99006.69;5113516;28;20028;-49
2022/07/14 08:07:24;;;;;;;7.43;2.00;;;;;;;45.04;18.13;99000.91;5095213;28;20029;-50
2022/07/14 08:09:49;;;;;;;5.18;2.00;;;;;;;45.58;17.62;99005.34;5113493;28;20019;-49
2022/07/14 08:12:15;;;;;;;8.25;3.38;;;;;;;45.87;17.57;98998.38;5113361;28;20080;-50
2022/07/14 08:14:51;;;;;;;4.00;1.65;;;;;;;45.99;17.61;98992.13;5095088;28;20084;-51
2022/07/14 08:17:20;;;;;;;9.65;2.33;;;;;;;46.44;17.25;98991.44;5113398;28;20491;-50
2022/07/14 08:19:47;;;;;;;4.40;2.00;;;;;;;47.39;15.80;98991.16;5113278;28;20027;-51
2022/07/14 08:22:13;;;;;;;10.90;2.20;;;;;;;47.71;15.75;98986.63;5094605;28;20070;-52
2022/07/14 08:24:39;;;;;;;11.00;2.88;;;;;;;47.68;16.00;98985.53;5091499;28;20028;-52
2022/07/14 08:27:06;;;;;;;3.50;1.52;;;;;;;47.72;15.74;98986.19;5091467;28;20032;-51
2022/07/14 08:29:32;;;;;;;4.65;1.85;;;;;;;47.90;15.77;98990.41;5112514;28;20035;-52
2022/07/14 08:31:58;;;;;;;7.72;1.90;;;;;;;48.16;15.31;98989.16;5112985;28;20516;-50
2022/07/14 08:34:24;;;;;;;8.45;2.13;;;;;;;48.58;15.17;98988.91;5093471;28;20016;-50
2022/07/14 08:36:49;;;;;;;6.50;1.83;;;;;;;49.01;14.25;98994.22;5091226;28;20436;-49
2022/07/14 08:39:16;;;;;;;5.18;1.85;;;;;;;49.46;13.92;98987.31;5110032;28;20030;-50
2022/07/14 08:41:42;;;;;;;6.72;1.67;;;;;;;49.58;13.95;98986.44;5112718;28;20073;-49
2022/07/14 08:44:09;;;;;;;5.88;1.55;;;;;;;49.47;13.63;98989.66;5112847;28;20020;-50
2022/07/14 08:46:38;;;;;;;7.28;1.58;;;;;;;49.49;13.67;98989.22;5112686;28;20081;-49
2022/07/14 08:49:07;;;;;;;4.05;1.92;;;;;;;49.28;13.86;98988.00;5112630;28;20023;-49
2022/07/14 08:51:38;;;;;;;4.28;1.63;;;;;;;48.82;14.16;98985.69;5094126;28;20111;-52
2022/07/14 08:54:04;;;;;;;9.68;2.15;;;;;;;49.03;13.89;98986.19;5112704;28;20489;-51
2022/07/14 08:56:30;;;;;;;10.63;2.33;;;;;;;49.39;13.44;98982.81;5112601;28;20031;-51
2022/07/14 08:58:56;;;;;;;3.35;1.90;;;;;;;49.58;13.00;98983.66;5112476;28;20526;-48
2022/07/14 09:01:26;;;;;;;9.15;1.80;;;;;;;49.73;13.30;98973.50;5112440;28;20057;-49
2022/07/14 09:03:53;;;;;;;3.95;1.50;;;;;;;50.05;13.04;98976.97;5112721;28;20512;-50
2022/07/14 09:06:47;;;;;;;5.38;1.52;;;;;;;49.80;13.34;98971.66;5091884;28;20092;-50
2022/07/14 09:09:23;;;;;;;4.30;1.55;;;;;;;49.51;13.17;98972.78;5091134;28;20114;-49
2022/07/14 09:11:54;;;;;;;8.75;2.15;;;;;;;49.48;13.13;98968.13;5090676;28;20028;-50
2022/07/14 09:14:21;;;;;;;15.52;3.08;;;;;;;49.54;13.49;98955.88;5091815;28;20024;-50
2022/07/14 09:16:47;;;;;;;8.82;1.75;;;;;;;49.39;13.50;98952.13;5112345;28;20427;-50
2022/07/14 09:19:15;;;;;;;11.25;3.00;;;;;;;49.43;13.10;98946.41;5112186;28;20050;-50
2022/07/14 09:21:47;;;;;;;10.25;2.17;;;;;;;49.81;13.00;98945.28;5112097;28;20131;-51
2022/07/14 09:24:14;;;;;;;4.72;1.40;;;;;;;50.13;12.04;98936.38;5112293;28;20044;-49
2022/07/14 09:26:46;;;;;;;5.88;1.50;;;;;;;50.48;11.65;98941.63;5090557;28;20054;-51
2022/07/14 09:29:24;;;;;;;4.53;1.58;;;;;;;50.58;11.36;98927.66;5108918;28;20024;-50
2022/07/14 09:31:51;;;;;;;2.75;1.48;;;;;;;50.48;11.37;98936.03;5090555;28;20028;-51
2022/07/14 09:34:31;;;;;;;10.40;2.25;;;;;;;50.42;11.84;98926.72;5091323;28;20528;-49
2022/07/14 09:37:17;;;;;;;8.10;1.60;;;;;;;49.86;12.10;98931.50;5112046;28;20496;-50
2022/07/14 09:39:55;;;;;;;3.60;1.30;;;;;;;49.31;12.18;98936.91;5112417;28;20385;-51
2022/07/14 09:42:21;;;;;;;4.55;1.40;;;;;;;48.70;12.89;98920.47;5112000;28;20020;-49
2022/07/14 09:44:47;;;;;;;6.07;1.83;;;;;;;48.70;12.51;98919.69;5112070;28;20126;-50
2022/07/14 09:47:13;;;;;;;4.13;1.40;;;;;;;48.78;12.56;98920.97;5090648;28;20564;-49
2022/07/14 09:49:40;;;;;;;4.40;1.70;;;;;;;48.73;12.93;98927.91;5112248;28;20115;-49
2022/07/14 09:52:06;;;;;;;2.80;1.38;;;;;;;48.54;12.11;98932.56;5111877;28;20039;-51
2022/07/14 09:54:50;;;;;;;2.20;1.20;;;;;;;48.23;11.37;98931.69;5111954;28;20544;-49
2022/07/14 09:57:15;;;;;;;8.77;1.17;;;;;;;47.82;11.66;98928.66;5111866;28;20033;-49
2022/07/14 09:59:50;;;;;;;4.88;1.60;;;;;;;47.98;12.11;98927.75;5111867;28;20397;-49
2022/07/14 10:02:26;;;;;;;7.07;1.48;;;;;;;48.06;11.93;98936.63;5111861;28;20122;-50
2022/07/14 10:04:54;;;;;;;3.25;1.20;;;;;;;47.98;11.75;98934.09;5111790;28;20111;-50
2022/07/14 10:07:23;;;;;;;3.42;1.40;;;;;;;48.26;12.08;98927.97;5111818;28;20093;-50
2022/07/14 10:10:04;;;;;;;2.42;1.10;;;;;;;48.51;11.01;98925.09;5111822;28;20020;-50
2022/07/14 10:12:30;;;;;;;5.40;1.50;;;;;;;48.87;10.84;98929.38;5111865;28;20481;-50
2022/07/14 10:15:01;;;;;;;2.17;1.45;;;;;;;49.16;10.68;98929.09;5090331;28;20090;-50
2022/07/14 10:17:29;;;;;;;21.88;3.88;;;;;;;49.03;11.06;98922.06;5110775;28;20466;-49
2022/07/14 10:19:56;;;;;;;2.42;1.05;;;;;;;49.03;10.40;98924.84;5089982;28;20472;-49
2022/07/14 10:22:23;;;;;;;1.65;1.08;;;;;;;49.08;10.24;98925.00;5091268;28;20043;-52
2022/07/14 10:24:50;;;;;;;2.03;1.00;;;;;;;49.01;10.11;98932.91;5112659;28;20035;-51
2022/07/14 10:27:18;;;;;;;4.55;1.10;;;;;;;49.15;10.02;98924.75;5115490;28;20042;-49
2022/07/14 10:29:51;;;;;;;5.30;1.00;;;;;;;48.87;10.17;98918.22;5115433;28;20070;-49
2022/07/14 10:32:48;;;;;;;6.00;1.50;;;;;;;48.11;10.44;98922.13;5115475;28;20039;-49
2022/07/14 10:35:26;;;;;;;1.30;1.08;;;;;;;47.37;10.79;98913.00;5094147;28;20455;-50
2022/07/14 10:38:15;;;;;;;8.80;1.83;;;;;;;47.41;11.47;98906.13;5115623;28;20066;-51
2022/07/14 10:41:18;;;;;;;5.28;1.10;;;;;;;47.95;10.52;98901.59;5093560;28;20024;-50
2022/07/14 10:43:50;;;;;;;2.90;1.20;;;;;;;48.58;10.29;98907.34;5108038;28;20024;-49
2022/07/14 10:46:40;;;;;;;6.93;1.70;;;;;;;49.12;10.38;98897.00;5094135;28;20512;-50
2022/07/14 10:49:08;;;;;;;4.10;1.40;;;;;;;49.41;10.27;98901.47;5093819;28;20047;-49
2022/07/14 10:51:46;;;;;;;7.25;1.15;;;;;;;49.24;9.83;98898.13;5114668;28;20493;-50
2022/07/14 10:54:16;;;;;;;8.10;1.85;;;;;;;49.29;10.38;98895.53;5114950;28;20035;-50
2022/07/14 10:56:44;;;;;;;5.28;1.27;;;;;;;49.58;10.03;98886.00;5114906;28;20026;-51
2022/07/14 10:59:25;;;;;;;6.40;1.15;;;;;;;49.51;10.09;98886.31;5114914;28;20502;-51
2022/07/14 11:02:13;;;;;;;1.77;1.20;;;;;;;49.38;10.02;98892.81;5093017;28;20027;-50
2022/07/14 11:04:59;;;;;;;3.95;1.63;;;;;;;49.02;9.67;98887.06;5106687;28;20035;-49
2022/07/14 11:07:44;;;;;;;5.43;1.67;;;;;;;48.45;10.27;98885.16;5114755;28;20486;-50
2022/07/14 11:10:20;;;;;;;18.05;2.50;;;;;;;47.88;10.69;98884.34;5114701;28;20035;-50
2022/07/14 11:13:04;;;;;;;101.70;10.75;;;;;;;47.52;10.48;98874.41;5114674;28;20032;-50
2022/07/14 11:15:51;;;;;;;783.47;67.88;;;;;;;47.28;12.00;98871.19;5114500;28;20588;-50
2022/07/14 11:18:26;;;;;;;384.88;31.73;;;;;;;47.37;11.05;98876.84;5114605;28;20065;-49
2022/07/14 11:21:06;;;;;;;38.90;4.07;;;;;;;47.35;10.36;98874.53;5114507;28;20032;-52
2022/07/14 11:23:51;;;;;;;650.58;61.75;;;;;;;46.86;11.82;98877.59;5114089;28;20508;-51
2022/07/14 11:26:32;;;;;;;94.05;8.65;;;;;;;47.22;10.91;98880.09;5114405;28;20023;-52
2022/07/14 11:29:06;;;;;;;68.53;6.30;;;;;;;47.64;11.17;98876.41;5113537;28;20107;-51
2022/07/14 11:31:48;;;;;;;8.80;1.50;;;;;;;47.75;10.23;98871.22;5114276;28;20051;-52
2022/07/14 11:37:11;;;;;;;15.98;3.33;;;;;;;46.11;10.79;98858.25;5092599;28;20073;-50
2022/07/14 11:39:42;;;;;;;3.58;1.08;;;;;;;45.35;11.46;98862.09;5105883;28;20027;-49
2022/07/14 11:42:13;;;;;;;2.83;1.27;;;;;;;44.42;11.98;98856.53;5114010;28;20148;-49
2022/07/14 11:44:39;;;;;;;12.45;2.47;;;;;;;44.52;12.83;98848.47;5092297;28;20020;-49
2022/07/14 11:47:21;;;;;;;17.90;2.47;;;;;;;44.87;12.85;98846.94;5109582;28;20431;-50
2022/07/14 11:50:07;;;;;;;9.30;2.15;;;;;;;45.47;12.72;98844.00;5113987;28;20438;-50